createdAt,value
2022-11-17T00:00:38.189Z,22.60
2022-11-17T00:01:38.093Z,23.80
2022-11-17T00:02:38.064Z,22.50
2022-11-17T00:03:38.143Z,22.80
2022-11-17T00:04:37.817Z,22.90
2022-11-17T00:05:37.727Z,21.40
2022-11-17T00:06:37.635Z,22.60
2022-11-17T00:07:37.570Z,22.20
2022-11-17T00:08:37.555Z,23.70
2022-11-17T00:09:37.357Z,21.60
2022-11-17T00:10:37.249Z,22.80
2022-11-17T00:11:37.157Z,24.00
2022-11-17T00:12:37.067Z,22.20
2022-11-17T00:13:37.251Z,22.50
2022-11-17T00:14:36.920Z,23.60
2022-11-17T00:15:36.798Z,22.90
2022-11-17T00:16:36.729Z,22.40
2022-11-17T00:17:36.620Z,22.50
2022-11-17T00:18:36.556Z,22.70
2022-11-17T00:19:36.468Z,23.20
2022-11-17T00:20:36.366Z,22.50
2022-11-17T00:21:36.262Z,21.30
2022-11-17T00:22:36.179Z,22.00
2022-11-17T00:23:36.279Z,23.10
2022-11-17T00:24:35.991Z,22.50
2022-11-17T00:25:35.912Z,22.30
2022-11-17T00:26:35.824Z,22.80
2022-11-17T00:27:35.742Z,23.50
2022-11-17T00:28:35.641Z,22.80
2022-11-17T00:29:39.126Z,20.90
2022-11-17T00:30:35.483Z,20.90
2022-11-17T00:31:35.372Z,22.60
2022-11-17T00:32:35.283Z,23.40
2022-11-17T00:33:35.543Z,22.40
2022-11-17T00:34:35.096Z,22.50
2022-11-17T00:35:35.013Z,22.20
2022-11-17T00:36:34.937Z,22.70
2022-11-17T00:37:34.827Z,22.60
2022-11-17T00:38:34.752Z,22.20
2022-11-17T00:39:34.654Z,22.40
2022-11-17T00:40:34.589Z,21.90
2022-11-17T00:41:34.465Z,23.10
2022-11-17T00:42:34.390Z,23.10
2022-11-17T00:43:34.550Z,23.20
2022-11-17T00:44:34.192Z,24.20
2022-11-17T00:45:34.115Z,25.30
2022-11-17T00:46:34.004Z,23.10
2022-11-17T00:47:33.925Z,21.50
2022-11-17T00:48:33.817Z,23.30
2022-11-17T00:49:33.737Z,23.50
2022-11-17T00:50:33.676Z,23.00
2022-11-17T00:51:33.556Z,23.80
2022-11-17T00:52:33.473Z,23.40
2022-11-17T00:53:33.802Z,24.60
2022-11-17T00:54:33.292Z,23.80
2022-11-17T00:55:33.230Z,23.80
2022-11-17T00:56:33.136Z,22.80
2022-11-17T00:57:33.035Z,24.10
2022-11-17T00:58:32.930Z,24.00
2022-11-17T00:59:32.848Z,23.30
2022-11-17T01:00:32.752Z,24.10
2022-11-17T01:01:32.722Z,25.00
2022-11-17T01:02:32.572Z,23.80
2022-11-17T01:03:32.684Z,24.60
2022-11-17T01:04:32.379Z,24.20
2022-11-17T01:05:33.277Z,22.50
2022-11-17T01:06:32.221Z,21.10
2022-11-17T01:07:32.163Z,23.80
2022-11-17T01:08:32.032Z,23.00
2022-11-17T01:09:31.932Z,23.60
2022-11-17T01:10:31.847Z,23.30
2022-11-17T01:11:31.772Z,22.30
2022-11-17T01:12:31.664Z,22.80
2022-11-17T01:13:31.688Z,22.80
2022-11-17T01:14:31.490Z,22.50
2022-11-17T01:15:31.391Z,22.90
2022-11-17T01:16:31.324Z,22.30
2022-11-17T01:17:31.242Z,22.10
2022-11-17T01:18:31.134Z,23.90
2022-11-17T01:19:31.045Z,22.90
2022-11-17T01:20:30.946Z,23.60
2022-11-17T01:21:30.864Z,23.70
2022-11-17T01:22:30.782Z,23.50
2022-11-17T01:23:30.684Z,23.10
2022-11-17T01:24:30.588Z,23.30
2022-11-17T01:25:30.504Z,23.90
2022-11-17T01:26:30.424Z,22.30
2022-11-17T01:27:30.348Z,23.40
2022-11-17T01:28:30.240Z,23.30
2022-11-17T01:29:30.134Z,23.90
2022-11-17T01:30:30.045Z,22.60
2022-11-17T01:31:29.990Z,23.70
2022-11-17T01:32:29.874Z,24.30
2022-11-17T01:33:29.804Z,23.30
2022-11-17T01:34:29.917Z,22.60
2022-11-17T01:35:29.818Z,22.60
2022-11-17T01:36:29.602Z,21.40
2022-11-17T01:37:29.569Z,22.00
2022-11-17T01:38:30.670Z,23.00
2022-11-17T01:39:29.438Z,23.10
2022-11-17T01:40:29.349Z,22.10
2022-11-17T01:41:29.246Z,21.40
2022-11-17T01:42:29.423Z,20.90
2022-11-17T01:43:29.244Z,21.30
2022-11-17T01:44:28.933Z,21.10
2022-11-17T01:45:28.932Z,21.90
2022-11-17T01:46:28.688Z,22.60
2022-11-17T01:47:28.658Z,22.90
2022-11-17T01:48:28.549Z,23.10
2022-11-17T01:49:35.637Z,22.50
2022-11-17T01:50:28.350Z,24.60
2022-11-17T01:51:28.467Z,21.90
2022-11-17T01:52:28.174Z,21.80
2022-11-17T01:53:29.024Z,22.10
2022-11-17T01:54:28.138Z,22.30
2022-11-17T01:55:28.155Z,23.30
2022-11-17T01:56:27.804Z,23.80
2022-11-17T01:57:27.742Z,22.70
2022-11-17T01:58:27.771Z,23.30
2022-11-17T01:59:27.586Z,23.30
2022-11-17T02:00:27.485Z,24.20
2022-11-17T02:01:27.439Z,23.50
2022-11-17T02:02:27.445Z,23.50
2022-11-17T02:03:27.256Z,22.80
2022-11-17T02:04:27.212Z,24.30
2022-11-17T02:05:27.877Z,24.50
2022-11-17T02:06:27.224Z,23.60
2022-11-17T02:07:27.107Z,26.20
2022-11-17T02:08:26.872Z,24.80
2022-11-17T02:09:26.738Z,24.30
2022-11-17T02:10:26.743Z,24.00
2022-11-17T02:11:26.573Z,25.20
2022-11-17T02:12:26.568Z,25.20
2022-11-17T02:13:26.414Z,24.30
2022-11-17T02:14:26.310Z,26.30
2022-11-17T02:15:26.252Z,23.80
2022-11-17T02:16:26.201Z,24.70
2022-11-17T02:17:26.303Z,25.90
2022-11-17T02:18:25.929Z,24.80
2022-11-17T02:19:25.832Z,25.20
2022-11-17T02:20:25.851Z,25.50
2022-11-17T02:21:25.765Z,25.00
2022-11-17T02:22:25.650Z,25.90
2022-11-17T02:23:25.697Z,24.10
2022-11-17T02:24:25.502Z,23.80
2022-11-17T02:25:27.105Z,24.40
2022-11-17T02:26:25.319Z,24.20
2022-11-17T02:27:25.133Z,23.20
2022-11-17T02:28:25.172Z,25.00
2022-11-17T02:29:24.966Z,24.60
2022-11-17T02:30:24.813Z,24.50
2022-11-17T02:31:24.745Z,23.50
2022-11-17T02:32:24.643Z,24.60
2022-11-17T02:33:24.553Z,24.30
2022-11-17T02:34:24.466Z,23.90
2022-11-17T02:35:24.374Z,23.80
2022-11-17T02:36:24.304Z,25.50
2022-11-17T02:37:24.248Z,23.50
2022-11-17T02:38:24.094Z,22.90
2022-11-17T02:39:24.008Z,23.70
2022-11-17T02:40:23.903Z,23.80
2022-11-17T02:41:23.827Z,24.30
2022-11-17T02:42:23.744Z,25.40
2022-11-17T02:43:23.654Z,26.10
2022-11-17T02:44:23.554Z,24.60
2022-11-17T02:45:23.474Z,24.50
2022-11-17T02:46:23.364Z,23.80
2022-11-17T02:47:23.310Z,24.30
2022-11-17T02:48:23.199Z,23.30
2022-11-17T02:49:23.115Z,24.10
2022-11-17T02:50:27.994Z,23.20
2022-11-17T02:51:23.935Z,24.10
2022-11-17T02:52:22.856Z,24.10
2022-11-17T02:53:22.754Z,25.00
2022-11-17T02:54:22.674Z,25.10
2022-11-17T02:55:22.573Z,25.00
2022-11-17T02:56:22.486Z,24.30
2022-11-17T02:57:22.399Z,24.00
2022-11-17T02:58:22.287Z,23.90
2022-11-17T02:59:22.200Z,24.00
2022-11-17T03:00:22.101Z,24.30
2022-11-17T03:01:22.116Z,23.70
2022-11-17T03:02:21.932Z,23.60
2022-11-17T03:03:21.818Z,23.50
2022-11-17T03:04:21.738Z,23.60
2022-11-17T03:05:21.621Z,24.10
2022-11-17T03:06:21.522Z,22.90
2022-11-17T03:07:21.540Z,23.40
2022-11-17T03:08:21.301Z,23.90
2022-11-17T03:09:21.249Z,23.70
2022-11-17T03:10:21.120Z,23.90
2022-11-17T03:11:21.028Z,24.10
2022-11-17T03:12:20.959Z,25.40
2022-11-17T03:13:20.872Z,25.20
2022-11-17T03:14:20.750Z,24.70
2022-11-17T03:15:20.641Z,24.10
2022-11-17T03:16:20.530Z,25.00
2022-11-17T03:17:20.451Z,25.00
2022-11-17T03:18:20.370Z,24.00
2022-11-17T03:19:20.241Z,24.20
2022-11-17T03:20:20.142Z,23.60
2022-11-17T03:21:20.073Z,24.90
2022-11-17T03:22:19.961Z,26.00
2022-11-17T03:23:19.893Z,24.70
2022-11-17T03:24:19.822Z,25.10
2022-11-17T03:25:19.703Z,24.30
2022-11-17T03:26:19.610Z,25.40
2022-11-17T03:27:19.529Z,25.20
2022-11-17T03:28:19.474Z,25.30
2022-11-17T03:29:19.361Z,25.10
2022-11-17T03:30:19.243Z,25.50
2022-11-17T03:31:19.146Z,26.80
2022-11-17T03:32:19.047Z,25.10
2022-11-17T03:33:18.965Z,25.80
2022-11-17T03:34:18.876Z,25.20
2022-11-17T03:35:18.756Z,24.30
2022-11-17T03:36:18.663Z,25.00
2022-11-17T03:37:18.555Z,26.00
2022-11-17T03:38:18.478Z,26.40
2022-11-17T03:39:18.397Z,25.70
2022-11-17T03:40:18.286Z,27.70
2022-11-17T03:41:18.190Z,26.10
2022-11-17T03:42:18.105Z,26.30
2022-11-17T03:43:18.015Z,26.50
2022-11-17T03:44:17.933Z,24.10
2022-11-17T03:45:17.815Z,24.90
2022-11-17T03:46:17.729Z,25.10
2022-11-17T03:47:17.617Z,25.80
2022-11-17T03:48:17.540Z,24.40
2022-11-17T03:49:17.450Z,25.30
2022-11-17T03:50:17.347Z,25.00
2022-11-17T03:51:17.259Z,25.30
2022-11-17T03:52:17.170Z,26.20
2022-11-17T03:53:17.099Z,25.60
2022-11-17T03:54:16.980Z,24.20
2022-11-17T03:55:16.909Z,24.80
2022-11-17T03:56:16.815Z,24.40
2022-11-17T03:57:16.730Z,25.10
2022-11-17T03:58:16.626Z,25.10
2022-11-17T03:59:16.545Z,24.20
2022-11-17T04:00:16.469Z,24.30
2022-11-17T04:01:16.404Z,24.20
2022-11-17T04:02:16.262Z,24.80
2022-11-17T04:03:16.193Z,23.80
2022-11-17T04:04:16.090Z,24.00
2022-11-17T04:05:16.009Z,23.60
2022-11-17T04:06:15.904Z,24.70
2022-11-17T04:07:15.892Z,23.60
2022-11-17T04:08:15.722Z,24.40
2022-11-17T04:09:19.903Z,24.60
2022-11-17T04:10:16.572Z,24.70
2022-11-17T04:11:15.471Z,24.30
2022-11-17T04:12:15.371Z,23.70
2022-11-17T04:13:15.280Z,23.40
2022-11-17T04:14:15.193Z,23.50
2022-11-17T04:15:15.123Z,23.50
2022-11-17T04:16:15.020Z,23.00
2022-11-17T04:17:14.924Z,22.30
2022-11-17T04:18:14.832Z,23.30
2022-11-17T04:19:14.746Z,23.60
2022-11-17T04:20:14.683Z,22.60
2022-11-17T04:21:14.591Z,22.60
2022-11-17T04:22:14.479Z,23.10
2022-11-17T04:23:14.523Z,22.70
2022-11-17T04:24:14.316Z,22.30
2022-11-17T04:25:14.254Z,21.60
2022-11-17T04:26:14.131Z,22.50
2022-11-17T04:27:14.076Z,23.90
2022-11-17T04:28:13.969Z,22.50
2022-11-17T04:29:13.849Z,21.70
2022-11-17T04:30:13.777Z,21.20
2022-11-17T04:31:13.688Z,22.60
2022-11-17T04:32:13.583Z,22.20
2022-11-17T04:33:13.504Z,22.20
2022-11-17T04:34:13.396Z,23.10
2022-11-17T04:35:13.349Z,21.10
2022-11-17T04:36:13.226Z,21.90
2022-11-17T04:37:13.148Z,22.20
2022-11-17T04:38:13.067Z,22.20
2022-11-17T04:39:12.961Z,22.30
2022-11-17T04:40:12.878Z,21.80
2022-11-17T04:41:12.797Z,22.20
2022-11-17T04:42:12.698Z,22.90
2022-11-17T04:43:12.630Z,23.60
2022-11-17T04:44:12.550Z,23.60
2022-11-17T04:45:12.467Z,23.40
2022-11-17T04:46:12.345Z,23.90
2022-11-17T04:47:12.322Z,23.40
2022-11-17T04:48:12.179Z,22.40
2022-11-17T04:49:12.061Z,22.70
2022-11-17T04:50:11.994Z,22.80
2022-11-17T04:51:11.889Z,22.40
2022-11-17T04:52:11.790Z,22.60
2022-11-17T04:53:12.082Z,22.00
2022-11-17T04:54:11.602Z,23.70
2022-11-17T04:55:11.491Z,22.10
2022-11-17T04:56:11.418Z,24.30
2022-11-17T04:57:11.301Z,23.80
2022-11-17T04:58:11.206Z,22.70
2022-11-17T04:59:11.112Z,23.90
2022-11-17T05:00:10.995Z,23.20
2022-11-17T05:01:10.932Z,22.80
2022-11-17T05:02:10.859Z,23.70
2022-11-17T05:03:10.735Z,24.10
2022-11-17T05:04:10.643Z,23.10
2022-11-17T05:05:10.545Z,23.20
2022-11-17T05:06:10.478Z,22.70
2022-11-17T05:07:10.454Z,24.90
2022-11-17T05:08:10.286Z,24.90
2022-11-17T05:09:10.203Z,24.00
2022-11-17T05:10:10.107Z,23.60
2022-11-17T05:11:10.089Z,24.10
2022-11-17T05:12:09.937Z,24.00
2022-11-17T05:13:09.856Z,24.40
2022-11-17T05:14:09.756Z,25.10
2022-11-17T05:15:09.667Z,26.50
2022-11-17T05:16:09.597Z,25.30
2022-11-17T05:17:11.258Z,27.40
2022-11-17T05:18:09.378Z,26.10
2022-11-17T05:19:09.298Z,25.90
2022-11-17T05:20:09.209Z,25.90
2022-11-17T05:21:09.120Z,26.20
2022-11-17T05:22:09.010Z,26.80
2022-11-17T05:23:08.940Z,25.10
2022-11-17T05:24:08.853Z,25.00
2022-11-17T05:25:08.758Z,22.90
2022-11-17T05:26:08.697Z,23.50
2022-11-17T05:27:08.581Z,24.10
2022-11-17T05:28:08.476Z,22.60
2022-11-17T05:29:08.381Z,23.40
2022-11-17T05:30:08.326Z,22.00
2022-11-17T05:31:08.230Z,22.00
2022-11-17T05:32:08.122Z,24.70
2022-11-17T05:33:08.033Z,28.80
2022-11-17T05:34:07.942Z,29.50
2022-11-17T05:35:07.831Z,30.90
2022-11-17T05:36:07.773Z,28.40
2022-11-17T05:37:07.668Z,28.30
2022-11-17T05:38:07.573Z,31.60
2022-11-17T05:39:07.462Z,27.70
2022-11-17T05:40:07.366Z,28.10
2022-11-17T05:41:07.284Z,30.00
2022-11-17T05:42:07.192Z,26.80
2022-11-17T05:43:07.085Z,26.50
2022-11-17T05:44:07.019Z,27.20
2022-11-17T05:45:06.894Z,28.10
2022-11-17T05:46:06.827Z,28.30
2022-11-17T05:47:06.706Z,27.50
2022-11-17T05:48:06.616Z,24.20
2022-11-17T05:49:06.505Z,24.30
2022-11-17T05:50:06.436Z,23.20
2022-11-17T05:51:06.348Z,21.30
2022-11-17T05:52:06.240Z,20.20
2022-11-17T05:53:06.137Z,20.90
2022-11-17T05:54:06.087Z,20.70
2022-11-17T05:55:05.958Z,21.20
2022-11-17T05:56:05.892Z,20.60
2022-11-17T05:57:05.801Z,19.40
2022-11-17T05:58:05.689Z,20.40
2022-11-17T05:59:05.605Z,20.30
2022-11-17T06:00:05.504Z,18.70
2022-11-17T06:01:05.420Z,18.80
2022-11-17T06:02:05.316Z,19.00
2022-11-17T06:03:05.219Z,18.80
2022-11-17T06:04:05.463Z,18.50
2022-11-17T06:05:05.030Z,20.30
2022-11-17T06:06:04.959Z,19.00
2022-11-17T06:07:04.860Z,18.70
2022-11-17T06:08:04.750Z,20.40
2022-11-17T06:09:04.660Z,19.60
2022-11-17T06:10:04.551Z,19.90
2022-11-17T06:11:04.894Z,19.90
2022-11-17T06:12:06.445Z,20.10
2022-11-17T06:13:04.273Z,19.50
2022-11-17T06:14:04.181Z,19.40
2022-11-17T06:15:04.092Z,19.40
2022-11-17T06:16:03.992Z,19.80
2022-11-17T06:17:03.891Z,18.50
2022-11-17T06:18:03.800Z,20.00
2022-11-17T06:19:03.710Z,17.60
2022-11-17T06:20:03.593Z,19.20
2022-11-17T06:21:03.504Z,19.70
2022-11-17T06:22:12.532Z,20.30
2022-11-17T06:23:04.307Z,19.30
2022-11-17T06:24:03.213Z,18.90
2022-11-17T06:25:03.102Z,19.70
2022-11-17T06:26:03.042Z,18.60
2022-11-17T06:27:02.918Z,19.10
2022-11-17T06:28:02.854Z,19.30
2022-11-17T06:29:02.745Z,19.00
2022-11-17T06:30:02.632Z,19.10
2022-11-17T06:31:02.557Z,19.40
2022-11-17T06:32:02.464Z,18.50
2022-11-17T06:33:02.357Z,18.90
2022-11-17T06:34:02.267Z,19.80
2022-11-17T06:35:02.156Z,20.40
2022-11-17T06:36:02.093Z,20.00
2022-11-17T06:37:01.987Z,19.70
2022-11-17T06:38:01.919Z,20.20
2022-11-17T06:39:01.817Z,19.20
2022-11-17T06:40:01.714Z,19.00
2022-11-17T06:41:01.640Z,19.00
2022-11-17T06:42:01.538Z,19.10
2022-11-17T06:43:01.418Z,19.60
2022-11-17T06:44:01.418Z,18.60
2022-11-17T06:45:01.244Z,20.10
2022-11-17T06:46:01.168Z,19.50
2022-11-17T06:47:01.042Z,19.20
2022-11-17T06:48:00.969Z,19.60
2022-11-17T06:49:00.860Z,18.60
2022-11-17T06:50:00.759Z,19.10
2022-11-17T06:51:00.691Z,19.50
2022-11-17T06:52:00.585Z,19.60
2022-11-17T06:53:00.493Z,20.10
2022-11-17T06:54:00.370Z,19.90
2022-11-17T06:55:00.277Z,19.70
2022-11-17T06:56:00.199Z,19.60
2022-11-17T06:57:00.105Z,19.20
2022-11-17T06:57:59.994Z,20.50
2022-11-17T06:58:59.892Z,19.50
2022-11-17T06:59:59.803Z,18.90
2022-11-17T07:00:59.735Z,21.20
2022-11-17T07:01:59.603Z,20.90
2022-11-17T07:02:59.523Z,21.10
2022-11-17T07:03:59.416Z,19.90
2022-11-17T07:04:59.327Z,20.70
2022-11-17T07:05:59.265Z,21.00
2022-11-17T07:06:59.204Z,20.20
2022-11-17T07:07:59.077Z,20.50
2022-11-17T07:08:58.976Z,20.30
2022-11-17T07:09:58.886Z,21.50
2022-11-17T07:10:58.798Z,21.30
2022-11-17T07:11:58.698Z,20.90
2022-11-17T07:12:58.595Z,21.80
2022-11-17T07:13:58.527Z,21.90
2022-11-17T07:14:58.418Z,22.20
2022-11-17T07:15:58.366Z,23.80
2022-11-17T07:16:58.243Z,26.70
2022-11-17T07:17:58.147Z,26.60
2022-11-17T07:18:58.057Z,26.90
2022-11-17T07:19:57.986Z,25.90
2022-11-17T07:20:57.907Z,26.30
2022-11-17T07:21:57.807Z,27.70
2022-11-17T07:22:57.688Z,27.00
2022-11-17T07:23:57.624Z,27.60
2022-11-17T07:24:57.530Z,27.50
2022-11-17T07:25:57.430Z,28.70
2022-11-17T07:26:57.328Z,27.30
2022-11-17T07:27:57.242Z,25.10
2022-11-17T07:28:57.139Z,22.30
2022-11-17T07:29:57.042Z,21.20
2022-11-17T07:30:56.966Z,20.00
2022-11-17T07:31:56.863Z,19.40
2022-11-17T07:32:56.750Z,20.00
2022-11-17T07:33:56.677Z,18.30
2022-11-17T07:34:56.580Z,18.50
2022-11-17T07:35:56.532Z,19.20
2022-11-17T07:36:56.411Z,18.40
2022-11-17T07:37:56.302Z,18.50
2022-11-17T07:38:56.212Z,18.40
2022-11-17T07:39:56.112Z,18.00
2022-11-17T07:40:56.032Z,18.20
2022-11-17T07:41:55.921Z,18.20
2022-11-17T07:42:55.814Z,19.70
2022-11-17T07:43:55.723Z,18.30
2022-11-17T07:44:55.617Z,19.20
2022-11-17T07:45:55.535Z,17.60
2022-11-17T07:46:55.412Z,18.80
2022-11-17T07:47:55.420Z,18.40
2022-11-17T07:48:55.232Z,17.20
2022-11-17T07:49:55.126Z,17.90
2022-11-17T07:50:55.033Z,17.50
2022-11-17T07:51:54.955Z,19.50
2022-11-17T07:52:54.835Z,17.30
2022-11-17T07:53:54.755Z,19.50
2022-11-17T07:54:54.635Z,17.30
2022-11-17T07:55:54.546Z,17.90
2022-11-17T07:56:54.456Z,17.90
2022-11-17T07:57:54.350Z,18.10
2022-11-17T07:58:54.254Z,18.40
2022-11-17T07:59:54.162Z,18.80
2022-11-17T08:00:54.109Z,18.10
2022-11-17T08:01:53.967Z,18.10
2022-11-17T08:02:53.878Z,18.40
2022-11-17T08:03:53.872Z,17.70
2022-11-17T08:04:53.705Z,17.50
2022-11-17T08:05:53.606Z,18.20
2022-11-17T08:06:53.540Z,17.60
2022-11-17T08:07:53.398Z,18.40
2022-11-17T08:08:53.319Z,17.00
2022-11-17T08:09:53.239Z,17.00
2022-11-17T08:10:53.152Z,17.00
2022-11-17T08:11:53.048Z,15.80
2022-11-17T08:12:52.998Z,13.80
2022-11-17T08:13:52.839Z,13.70
2022-11-17T08:14:52.743Z,13.90
2022-11-17T08:15:52.671Z,14.10
2022-11-17T08:16:52.549Z,16.90
2022-11-17T08:17:52.479Z,16.10
2022-11-17T08:18:52.868Z,16.10
2022-11-17T08:19:52.290Z,16.60
2022-11-17T08:20:52.194Z,16.60
2022-11-17T08:21:52.091Z,16.70
2022-11-17T08:22:51.991Z,16.50
2022-11-17T08:23:51.893Z,17.20
2022-11-17T08:24:51.790Z,16.10
2022-11-17T08:25:51.736Z,16.20
2022-11-17T08:26:51.612Z,16.20
2022-11-17T08:27:51.512Z,15.00
2022-11-17T08:28:56.889Z,14.90
2022-11-17T08:29:52.313Z,15.10
2022-11-17T08:30:51.250Z,14.60
2022-11-17T08:31:51.149Z,14.30
2022-11-17T08:32:51.064Z,15.10
2022-11-17T08:33:50.973Z,14.20
2022-11-17T08:34:50.882Z,13.70
2022-11-17T08:35:50.815Z,13.30
2022-11-17T08:36:50.704Z,14.00
2022-11-17T08:37:50.621Z,13.60
2022-11-17T08:38:50.524Z,13.50
2022-11-17T08:39:50.461Z,13.90
2022-11-17T08:40:50.376Z,13.70
2022-11-17T08:41:50.285Z,13.70
2022-11-17T08:42:50.173Z,13.10
2022-11-17T08:43:50.089Z,13.20
2022-11-17T08:44:49.979Z,13.10
2022-11-17T08:45:49.916Z,12.80
2022-11-17T08:46:49.809Z,12.40
2022-11-17T08:47:49.727Z,12.80
2022-11-17T08:48:53.888Z,13.50
2022-11-17T08:49:50.536Z,12.70
2022-11-17T08:50:49.468Z,12.60
2022-11-17T08:51:49.357Z,12.40
2022-11-17T08:52:49.257Z,12.10
2022-11-17T08:53:49.187Z,12.60
2022-11-17T08:54:49.108Z,12.40
2022-11-17T08:55:49.062Z,12.20
2022-11-17T08:56:48.963Z,12.50
2022-11-17T08:57:48.817Z,13.10
2022-11-17T08:58:48.729Z,12.40
2022-11-17T08:59:48.658Z,12.40
2022-11-17T09:00:48.682Z,11.80
2022-11-17T09:01:48.564Z,12.50
2022-11-17T09:02:48.368Z,12.90
2022-11-17T09:03:48.286Z,12.90
2022-11-17T09:04:48.181Z,12.10
2022-11-17T09:05:48.119Z,11.70
2022-11-17T09:06:47.990Z,12.90
2022-11-17T09:07:48.064Z,12.70
2022-11-17T09:08:47.953Z,13.20
2022-11-17T09:09:47.729Z,12.70
2022-11-17T09:10:47.623Z,12.70
2022-11-17T09:11:47.513Z,13.10
2022-11-17T09:12:47.413Z,12.40
2022-11-17T09:13:47.419Z,11.90
2022-11-17T09:14:47.223Z,12.50
2022-11-17T09:15:47.149Z,12.30
2022-11-17T09:16:47.033Z,11.50
2022-11-17T09:17:46.963Z,11.90
2022-11-17T09:18:46.874Z,11.80
2022-11-17T09:19:46.772Z,12.00
2022-11-17T09:20:46.683Z,12.20
2022-11-17T09:21:46.582Z,12.10
2022-11-17T09:22:46.494Z,11.30
2022-11-17T09:23:46.427Z,12.80
2022-11-17T09:24:46.302Z,11.80
2022-11-17T09:25:46.224Z,11.40
2022-11-17T09:26:46.104Z,12.90
2022-11-17T09:27:46.022Z,12.70
2022-11-17T09:28:45.943Z,11.90
2022-11-17T09:29:45.825Z,11.90
2022-11-17T09:30:45.743Z,11.20
2022-11-17T09:31:45.743Z,11.70
2022-11-17T09:32:45.531Z,11.80
2022-11-17T09:33:45.458Z,11.90
2022-11-17T09:34:45.369Z,11.40
2022-11-17T09:35:45.267Z,11.60
2022-11-17T09:36:45.152Z,11.60
2022-11-17T09:37:45.061Z,11.60
2022-11-17T09:38:44.962Z,12.00
2022-11-17T09:39:44.858Z,11.30
2022-11-17T09:40:44.790Z,11.30
2022-11-17T09:41:44.687Z,11.30
2022-11-17T09:42:44.584Z,11.10
2022-11-17T09:43:44.488Z,11.70
2022-11-17T09:44:44.400Z,11.90
2022-11-17T09:45:44.328Z,11.70
2022-11-17T09:46:44.219Z,12.10
2022-11-17T09:47:44.121Z,12.30
2022-11-17T09:48:44.111Z,12.50
2022-11-17T09:49:43.931Z,12.30
2022-11-17T09:50:43.870Z,11.80
2022-11-17T09:51:43.760Z,12.10
2022-11-17T09:52:43.669Z,11.90
2022-11-17T09:53:43.561Z,11.90
2022-11-17T09:54:43.491Z,11.90
2022-11-17T09:55:43.391Z,11.40
2022-11-17T09:56:43.272Z,11.80
2022-11-17T09:57:43.174Z,11.10
2022-11-17T09:58:43.109Z,11.20
2022-11-17T09:59:42.999Z,11.40
2022-11-17T10:00:42.913Z,12.20
2022-11-17T10:01:42.831Z,11.60
2022-11-17T10:02:42.724Z,12.00
2022-11-17T10:03:45.952Z,12.00
2022-11-17T10:04:42.526Z,11.60
2022-11-17T10:05:42.423Z,11.60
2022-11-17T10:06:42.335Z,11.90
2022-11-17T10:07:42.224Z,11.70
2022-11-17T10:08:42.149Z,11.80
2022-11-17T10:09:42.038Z,11.90
2022-11-17T10:10:41.966Z,12.60
2022-11-17T10:11:41.858Z,11.70
2022-11-17T10:12:41.754Z,12.10
2022-11-17T10:13:41.662Z,11.30
2022-11-17T10:14:41.555Z,10.60
2022-11-17T10:15:41.467Z,11.00
2022-11-17T10:16:41.385Z,11.00
2022-11-17T10:17:41.280Z,10.80
2022-11-17T10:18:41.205Z,11.30
2022-11-17T10:19:41.100Z,10.80
2022-11-17T10:20:41.028Z,9.90
2022-11-17T10:21:40.908Z,10.90
2022-11-17T10:22:40.836Z,11.00
2022-11-17T10:23:46.131Z,11.00
2022-11-17T10:24:41.714Z,11.60
2022-11-17T10:25:40.560Z,11.80
2022-11-17T10:26:40.467Z,11.80
2022-11-17T10:27:40.370Z,12.10
2022-11-17T10:28:40.286Z,11.50
2022-11-17T10:29:40.190Z,11.60
2022-11-17T10:30:40.110Z,11.20
2022-11-17T10:31:40.008Z,11.30
2022-11-17T10:32:43.963Z,10.80
2022-11-17T10:33:40.820Z,11.00
2022-11-17T10:34:41.554Z,10.80
2022-11-17T10:35:39.632Z,11.40
2022-11-17T10:36:39.516Z,11.40
2022-11-17T10:37:39.438Z,11.80
2022-11-17T10:38:39.343Z,11.30
2022-11-17T10:39:39.230Z,11.10
2022-11-17T10:40:39.166Z,10.60
2022-11-17T10:41:39.035Z,11.40
2022-11-17T10:42:38.944Z,10.70
2022-11-17T10:43:38.968Z,11.10
2022-11-17T10:44:38.767Z,11.10
2022-11-17T10:45:38.678Z,11.70
2022-11-17T10:46:46.323Z,13.20
2022-11-17T10:47:39.475Z,12.20
2022-11-17T10:48:38.415Z,11.70
2022-11-17T10:49:38.305Z,11.80
2022-11-17T10:50:38.225Z,12.00
2022-11-17T10:51:38.125Z,12.90
2022-11-17T10:52:38.027Z,12.20
2022-11-17T10:53:44.599Z,11.70
2022-11-17T10:54:38.858Z,12.40
2022-11-17T10:55:37.774Z,12.90
2022-11-17T10:56:37.667Z,12.40
2022-11-17T10:57:37.565Z,11.90
2022-11-17T10:58:37.557Z,12.70
2022-11-17T10:59:37.377Z,12.30
2022-11-17T11:00:37.310Z,13.00
2022-11-17T11:01:37.229Z,12.10
2022-11-17T11:02:37.090Z,13.70
2022-11-17T11:03:37.158Z,13.30
2022-11-17T11:04:36.908Z,13.00
2022-11-17T11:05:36.858Z,12.60
2022-11-17T11:06:36.728Z,13.50
2022-11-17T11:07:36.666Z,13.20
2022-11-17T11:08:36.539Z,13.80
2022-11-17T11:09:36.440Z,13.40
2022-11-17T11:10:36.356Z,13.30
2022-11-17T11:11:36.588Z,13.80
2022-11-17T11:12:36.280Z,14.10
2022-11-17T11:13:36.051Z,13.20
2022-11-17T11:14:35.959Z,14.30
2022-11-17T11:15:35.904Z,14.30
2022-11-17T11:16:35.792Z,14.60
2022-11-17T11:17:35.680Z,14.80
2022-11-17T11:18:35.701Z,14.60
2022-11-17T11:19:35.481Z,14.30
2022-11-17T11:20:35.412Z,14.30
2022-11-17T11:21:35.301Z,13.80
2022-11-17T11:22:35.217Z,14.20
2022-11-17T11:23:35.157Z,14.00
2022-11-17T11:24:35.013Z,13.70
2022-11-17T11:25:34.939Z,14.00
2022-11-17T11:26:34.833Z,15.80
2022-11-17T11:27:34.735Z,16.70
2022-11-17T11:28:34.645Z,16.50
2022-11-17T11:29:34.564Z,16.20
2022-11-17T11:30:34.453Z,15.40
2022-11-17T11:31:34.406Z,15.00
2022-11-17T11:32:34.277Z,15.60
2022-11-17T11:33:34.154Z,15.40
2022-11-17T11:34:34.094Z,15.50
2022-11-17T11:35:33.966Z,15.00
2022-11-17T11:36:33.916Z,15.70
2022-11-17T11:37:33.775Z,15.20
2022-11-17T11:38:33.686Z,16.00
2022-11-17T11:39:33.593Z,16.00
2022-11-17T11:40:33.531Z,16.50
2022-11-17T11:41:33.436Z,16.10
2022-11-17T11:42:33.317Z,17.10
2022-11-17T11:43:33.227Z,16.00
2022-11-17T11:44:33.145Z,16.80
2022-11-17T11:45:33.055Z,17.60
2022-11-17T11:46:32.936Z,17.50
2022-11-17T11:47:32.846Z,15.70
2022-11-17T11:48:32.763Z,16.50
2022-11-17T11:49:32.635Z,18.60
2022-11-17T11:50:35.377Z,19.50
2022-11-17T11:51:33.449Z,19.50
2022-11-17T11:52:32.363Z,20.10
2022-11-17T11:53:32.247Z,20.10
2022-11-17T11:54:32.143Z,17.90
2022-11-17T11:55:32.037Z,17.70
2022-11-17T11:56:31.941Z,18.00
2022-11-17T11:57:31.871Z,17.30
2022-11-17T11:58:31.732Z,16.10
2022-11-17T11:59:31.646Z,15.40
2022-11-17T12:00:31.540Z,14.90
2022-11-17T12:01:31.451Z,16.00
2022-11-17T12:02:31.377Z,15.70
2022-11-17T12:03:31.428Z,17.00
2022-11-17T12:04:31.154Z,16.00
2022-11-17T12:05:31.053Z,16.60
2022-11-17T12:06:30.975Z,18.10
2022-11-17T12:07:30.975Z,18.40
2022-11-17T12:08:30.784Z,19.00
2022-11-17T12:09:30.669Z,18.60
2022-11-17T12:10:30.572Z,19.00
2022-11-17T12:11:30.458Z,19.90
2022-11-17T12:12:30.354Z,18.20
2022-11-17T12:13:30.294Z,18.60
2022-11-17T12:14:30.177Z,18.30
2022-11-17T12:15:30.078Z,19.90
2022-11-17T12:16:29.964Z,19.80
2022-11-17T12:17:29.880Z,20.20
2022-11-17T12:18:29.785Z,19.50
2022-11-17T12:19:29.694Z,19.30
2022-11-17T12:20:29.592Z,19.10
2022-11-17T12:21:29.459Z,19.80
2022-11-17T12:22:29.373Z,19.90
2022-11-17T12:23:29.269Z,19.60
2022-11-17T12:24:29.168Z,20.30
2022-11-17T12:25:29.054Z,19.40
2022-11-17T12:26:28.953Z,19.50
2022-11-17T12:27:28.819Z,20.50
2022-11-17T12:28:28.741Z,19.30
2022-11-17T12:29:28.650Z,19.80
2022-11-17T12:30:28.533Z,19.80
2022-11-17T12:31:28.439Z,18.40
2022-11-17T12:32:28.348Z,19.00
2022-11-17T12:33:28.252Z,20.00
2022-11-17T12:34:28.172Z,19.50
2022-11-17T12:35:28.041Z,20.00
2022-11-17T12:36:30.868Z,19.70
2022-11-17T12:37:27.853Z,19.50
2022-11-17T12:38:27.802Z,20.60
2022-11-17T12:39:27.643Z,19.70
2022-11-17T12:40:27.563Z,19.40
2022-11-17T12:41:27.441Z,18.90
2022-11-17T12:42:27.341Z,19.60
2022-11-17T12:43:27.246Z,20.30
2022-11-17T12:44:27.134Z,19.20
2022-11-17T12:45:27.043Z,21.40
2022-11-17T12:46:26.933Z,21.70
2022-11-17T12:47:26.806Z,21.90
2022-11-17T12:48:33.904Z,21.60
2022-11-17T12:49:27.632Z,23.00
2022-11-17T12:50:26.531Z,22.80
2022-11-17T12:51:26.397Z,22.70